Time;durP1;ratioP1;P1;durP2;ratioP2;P2;SDS_P1;SDS_P2;PMS_P1;PMS_P2;Temp;Humidity;BMP_temperature;BMP_pressure;BME280_temperature;BME280_humidity;BME280_pressure;Samples;Min_cycle;Max_cycle;Signal;HPM_P1;HPM_P2
2022/06/29 00:02:43;;;;;;;6.47;5.37;;;;;;;19.77;80.67;97679.25;6186722;28;20328;-88
2022/06/29 00:05:45;;;;;;;9.53;6.20;;;;;;;19.76;81.03;97669.56;6187021;28;20615;-88
2022/06/29 00:08:47;;;;;;;6.67;6.17;;;;;;;19.70;81.06;97667.59;6162212;28;20725;-89
2022/06/29 00:11:49;;;;;;;6.60;5.87;;;;;;;19.61;81.50;97670.53;6187726;28;20797;-88
2022/06/29 00:14:51;;;;;;;7.30;6.53;;;;;;;19.50;81.76;97669.94;6187915;28;20435;-89
2022/06/29 00:17:53;;;;;;;7.13;6.53;;;;;;;19.46;82.30;97657.91;6190848;28;20240;-88
2022/06/29 00:20:55;;;;;;;7.13;6.53;;;;;;;19.47;82.17;97639.97;6209500;28;20766;-88
2022/06/29 00:23:57;;;;;;;6.67;6.07;;;;;;;19.44;82.28;97641.19;6209469;28;20236;-88
2022/06/29 00:27:00;;;;;;;7.20;6.50;;;;;;;19.41;82.15;97643.38;6170178;28;20229;-89
2022/06/29 00:30:04;;;;;;;7.27;6.47;;;;;;;19.41;82.34;97646.91;6205296;28;20260;-89
2022/06/29 00:33:06;;;;;;;7.53;6.93;;;;;;;19.37;82.40;97639.38;6191822;28;20612;-88
2022/06/29 00:36:08;;;;;;;8.53;7.83;;;;;;;19.34;82.86;97645.13;6188632;28;20224;-89
2022/06/29 00:39:10;;;;;;;8.00;7.30;;;;;;;19.33;82.81;97640.78;6188123;28;20223;-89
2022/06/29 00:42:12;;;;;;;8.10;7.40;;;;;;;19.27;83.20;97626.25;6187247;28;20732;-88
2022/06/29 00:45:14;;;;;;;8.30;7.57;;;;;;;19.23;83.11;97624.13;6186037;28;20228;-89
2022/06/29 00:48:16;;;;;;;8.97;6.73;;;;;;;19.16;83.46;97630.19;6203592;28;20224;-88
2022/06/29 00:51:20;;;;;;;7.90;7.20;;;;;;;19.14;83.34;97636.75;6203860;28;20240;-88
2022/06/29 00:54:23;;;;;;;8.23;7.43;;;;;;;19.11;83.72;97627.22;6186658;28;20227;-89
2022/06/29 00:57:27;;;;;;;7.77;7.17;;;;;;;19.08;84.09;97632.91;6186702;28;20697;-89
2022/06/29 01:05:05;;;;;;;7.70;7.10;;;;;;;18.88;84.88;97629.03;6199754;28;20264;-88
2022/06/29 01:08:07;;;;;;;8.17;7.47;;;;;;;18.87;84.75;97619.34;6206393;28;20233;-89
2022/06/29 01:11:09;;;;;;;7.67;7.10;;;;;;;18.90;84.56;97618.16;6193353;28;20315;-88
2022/06/29 01:14:15;;;;;;;8.20;7.50;;;;;;;18.91;84.53;97611.81;6208117;28;20224;-89
2022/06/29 01:17:19;;;;;;;7.27;6.63;;;;;;;18.91;84.49;97620.66;6206573;28;20311;-88
2022/06/29 01:20:22;;;;;;;8.10;7.30;;;;;;;18.92;84.48;97630.34;6192049;28;20240;-88
2022/06/29 01:23:24;;;;;;;8.70;7.90;;;;;;;18.83;84.92;97628.75;6207472;28;20305;-88
2022/06/29 01:26:26;;;;;;;8.67;7.87;;;;;;;18.78;85.07;97623.06;6190617;28;20228;-88
2022/06/29 01:29:29;;;;;;;8.23;7.53;;;;;;;18.77;85.02;97619.56;6191105;28;20333;-88
2022/06/29 01:32:31;;;;;;;8.17;7.47;;;;;;;18.71;85.11;97614.94;6207926;28;20220;-88
2022/06/29 01:35:33;;;;;;;7.87;7.27;;;;;;;18.70;84.89;97613.25;6189833;28;20227;-89
2022/06/29 01:38:36;;;;;;;8.53;7.83;;;;;;;18.66;85.14;97606.63;6205996;28;20232;-88
2022/06/29 01:41:38;;;;;;;8.27;7.57;;;;;;;18.60;85.52;97612.66;6208127;28;20236;-88
2022/06/29 01:44:40;;;;;;;7.93;7.30;;;;;;;18.65;85.34;97612.13;6189568;28;20335;-89
2022/06/29 01:47:42;;;;;;;8.10;7.40;;;;;;;18.66;85.38;97606.63;6191165;28;20234;-89
2022/06/29 01:50:44;;;;;;;8.53;7.83;;;;;;;18.68;85.66;97603.75;6198901;28;20231;-89
2022/06/29 01:53:47;;;;;;;8.70;7.90;;;;;;;18.66;85.75;97598.59;6183127;28;20580;-89
2022/06/29 01:56:49;;;;;;;8.10;7.30;;;;;;;18.67;85.63;97602.91;6203199;28;20723;-89
2022/06/29 01:59:51;;;;;;;8.33;7.17;;;;;;;18.70;85.62;97599.06;6190015;28;20231;-89
2022/06/29 02:02:53;;;;;;;7.37;6.67;;;;;;;18.70;85.48;97612.44;6189494;28;20291;-89
2022/06/29 02:05:55;;;;;;;8.30;7.40;;;;;;;18.76;85.32;97609.06;6188577;28;20326;-89
2022/06/29 02:08:57;;;;;;;8.07;7.47;;;;;;;18.78;85.20;97609.69;6206100;28;20745;-89
2022/06/29 02:11:59;;;;;;;8.23;7.63;;;;;;;18.77;85.63;97614.22;6189642;28;20337;-88
2022/06/29 02:15:01;;;;;;;8.23;7.53;;;;;;;18.84;85.65;97609.00;6205996;28;20235;-88
2022/06/29 02:18:03;;;;;;;7.97;7.27;;;;;;;18.91;85.47;97601.94;6205326;28;20205;-89
2022/06/29 02:21:06;;;;;;;8.30;7.60;;;;;;;19.01;85.05;97612.41;6205903;28;20225;-88
2022/06/29 02:24:08;;;;;;;7.77;7.07;;;;;;;18.99;85.12;97614.41;6189554;28;20266;-88
2022/06/29 02:27:10;;;;;;;8.00;7.40;;;;;;;18.95;85.30;97613.13;6205296;28;20363;-88
2022/06/29 02:30:14;;;;;;;7.60;7.00;;;;;;;18.90;85.60;97600.28;6189198;28;20302;-88
2022/06/29 02:36:36;;;;;;;8.47;7.77;;;;;;;18.92;85.82;97586.72;6188731;28;20310;-89
2022/06/29 02:39:38;;;;;;;7.90;7.10;;;;;;;18.92;85.56;97600.94;6205582;28;20573;-89
2022/06/29 02:42:40;;;;;;;8.43;7.63;;;;;;;18.94;85.27;97609.63;6190739;28;20355;-89
2022/06/29 02:46:03;;;;;;;7.87;7.17;;;;;;;18.91;85.34;97591.25;6204685;28;20612;-89
2022/06/29 02:49:05;;;;;;;7.40;6.80;;;;;;;18.86;85.50;97569.56;6188778;28;20339;-89
2022/06/29 02:52:08;;;;;;;7.50;6.90;;;;;;;18.80;85.71;97567.59;6189363;28;20256;-89
2022/06/29 02:55:10;;;;;;;8.20;7.50;;;;;;;18.85;85.55;97569.75;6188478;28;20708;-89
2022/06/29 02:58:12;;;;;;;8.00;7.37;;;;;;;18.83;85.47;97567.22;6188635;28;20224;-89
2022/06/29 03:01:14;;;;;;;8.50;7.80;;;;;;;18.79;85.76;97561.41;6189823;28;20228;-88
2022/06/29 03:04:17;;;;;;;8.00;7.23;;;;;;;18.78;85.76;97565.09;6197524;28;20371;-89
2022/06/29 03:07:19;;;;;;;8.07;7.27;;;;;;;18.77;85.97;97560.75;6196476;28;20217;-88
2022/06/29 03:10:21;;;;;;;7.83;7.13;;;;;;;18.80;85.79;97564.91;6166188;28;20320;-89
2022/06/29 03:13:23;;;;;;;7.80;7.20;;;;;;;18.80;85.87;97556.88;6181711;28;20287;-89
2022/06/29 03:16:25;;;;;;;8.63;7.83;;;;;;;18.76;86.06;97556.44;6180507;28;20278;-88
2022/06/29 03:19:27;;;;;;;8.10;7.50;;;;;;;18.74;86.12;97555.78;6180467;28;20237;-89
2022/06/29 03:22:29;;;;;;;7.97;7.37;;;;;;;18.73;85.91;97561.28;6181823;28;20247;-89
2022/06/29 03:25:31;;;;;;;8.43;7.77;;;;;;;18.73;86.27;97561.28;6179979;28;20724;-88
2022/06/29 03:28:33;;;;;;;7.90;7.30;;;;;;;18.72;86.05;97564.97;6178321;28;20248;-88
2022/06/29 03:31:35;;;;;;;8.03;7.43;;;;;;;18.75;86.10;97572.66;6180854;28;20233;-89
2022/06/29 03:34:37;;;;;;;8.50;7.80;;;;;;;18.78;86.24;97561.56;6163791;28;20233;-88
2022/06/29 03:37:39;;;;;;;9.30;7.83;;;;;;;18.80;86.17;97563.06;6179520;28;20291;-88
2022/06/29 03:40:41;;;;;;;7.90;7.20;;;;;;;18.90;85.73;97567.34;6163738;28;20778;-89
2022/06/29 03:43:43;;;;;;;7.97;7.27;;;;;;;18.97;85.38;97566.44;6181429;28;20323;-89
2022/06/29 03:46:45;;;;;;;8.43;7.73;;;;;;;19.00;85.07;97558.06;6179056;28;20718;-88
2022/06/29 03:49:47;;;;;;;8.93;8.13;;;;;;;19.03;85.10;97571.09;6188040;28;20230;-88
2022/06/29 03:52:49;;;;;;;8.63;7.93;;;;;;;19.10;85.10;97568.53;6182104;28;20239;-89
2022/06/29 03:55:51;;;;;;;8.60;7.90;;;;;;;19.14;84.51;97576.03;6178926;28;20236;-88
2022/06/29 03:58:53;;;;;;;8.67;7.87;;;;;;;19.15;84.86;97582.22;6178955;28;20228;-88
2022/06/29 04:01:55;;;;;;;7.63;7.03;;;;;;;19.17;84.97;97585.53;6181670;28;20704;-89
2022/06/29 04:04:58;;;;;;;8.27;7.57;;;;;;;19.30;84.99;97584.94;6178373;28;20259;-88
2022/06/29 04:08:00;;;;;;;7.93;7.23;;;;;;;19.39;84.68;97583.84;6180190;28;20233;-88
2022/06/29 04:11:48;;;;;;;8.70;7.90;;;;;;;19.48;84.12;97582.78;6163158;28;20233;-88
2022/06/29 04:14:28;;;;;;;8.00;7.30;;;;;;;19.53;84.02;97589.28;6195195;28;20237;-88
2022/06/29 04:17:30;;;;;;;7.83;7.23;;;;;;;19.66;84.04;97588.66;6161915;28;20233;-88
2022/06/29 04:23:52;;;;;;;8.43;7.63;;;;;;;19.84;83.47;97583.78;6195826;28;20229;-88
2022/06/29 04:26:54;;;;;;;7.40;6.80;;;;;;;19.99;82.97;97589.13;6161718;28;20637;-88
2022/06/29 04:29:56;;;;;;;7.90;7.20;;;;;;;20.14;82.20;97586.47;6178166;28;20319;-88
2022/06/29 04:32:59;;;;;;;7.67;7.07;;;;;;;20.31;82.11;97587.91;6179166;28;20722;-89
2022/06/29 04:36:01;;;;;;;8.00;7.40;;;;;;;20.40;81.79;97570.75;6177728;28;20305;-89
2022/06/29 04:39:03;;;;;;;8.77;7.87;;;;;;;20.42;81.43;97568.72;6154985;28;20214;-88
2022/06/29 04:42:05;;;;;;;7.10;6.60;;;;;;;20.38;81.25;97582.66;6177622;28;20740;-88
2022/06/29 04:46:19;;;;;;;7.93;7.10;;;;;;;20.42;81.59;97583.97;6178537;28;20721;-88
2022/06/29 04:48:30;;;;;;;7.67;6.97;;;;;;;20.56;80.99;97573.19;6179711;28;21037;-88
2022/06/29 04:51:34;;;;;;;7.13;6.60;;;;;;;20.65;80.71;97560.53;6171018;28;20248;-88
2022/06/29 04:54:36;;;;;;;8.23;7.43;;;;;;;20.71;81.23;97558.94;6186790;28;20610;-88
2022/06/29 04:57:38;;;;;;;7.17;6.63;;;;;;;20.72;80.86;97557.91;6186854;28;20689;-88
2022/06/29 05:00:40;;;;;;;7.87;7.23;;;;;;;20.76;81.20;97564.56;6186796;28;20228;-88
2022/06/29 05:03:42;;;;;;;7.73;7.03;;;;;;;20.91;80.81;97562.66;6171613;28;20247;-88
2022/06/29 05:06:44;;;;;;;8.43;7.10;;;;;;;21.07;79.78;97561.56;6170729;28;20275;-88
2022/06/29 05:09:46;;;;;;;7.57;6.97;;;;;;;21.23;79.52;97572.91;6187701;28;20375;-88
2022/06/29 05:12:48;;;;;;;6.97;6.47;;;;;;;21.37;79.04;97579.22;6186126;28;20232;-88
2022/06/29 05:15:50;;;;;;;6.90;6.30;;;;;;;21.52;78.68;97584.50;6204893;28;20363;-88
2022/06/29 05:18:52;;;;;;;7.63;6.90;;;;;;;21.67;78.19;97580.69;6187058;28;20228;-89
2022/06/29 05:21:54;;;;;;;7.30;6.70;;;;;;;21.75;77.72;97582.44;6188890;28;20324;-89
2022/06/29 05:24:56;;;;;;;7.80;7.20;;;;;;;21.87;77.77;97593.44;6182809;28;20245;-88
2022/06/29 05:27:58;;;;;;;7.77;7.17;;;;;;;21.98;77.51;97591.06;6178038;28;20233;-89
2022/06/29 05:31:00;;;;;;;7.20;6.60;;;;;;;22.11;77.10;97587.63;6202926;28;20635;-89
2022/06/29 05:34:02;;;;;;;7.60;7.00;;;;;;;22.34;76.14;97592.72;6170473;28;20346;-89
2022/06/29 05:37:04;;;;;;;7.90;7.20;;;;;;;22.46;75.93;97581.19;6169437;28;20233;-88
2022/06/29 05:40:07;;;;;;;7.33;6.63;;;;;;;22.49;75.87;97585.34;6186344;28;20708;-90
2022/06/29 05:43:09;;;;;;;8.43;7.57;;;;;;;22.43;76.41;97578.09;6187212;28;20233;-90
2022/06/29 05:46:11;;;;;;;8.10;7.30;;;;;;;22.37;76.70;97578.88;6185876;28;20599;-90
2022/06/29 05:49:13;;;;;;;7.07;6.47;;;;;;;22.30;77.04;97578.84;6181450;28;20532;-89
2022/06/29 05:52:15;;;;;;;7.30;6.70;;;;;;;22.34;77.44;97585.50;6162276;28;20237;-89
2022/06/29 05:55:17;;;;;;;7.60;7.00;;;;;;;22.32;77.23;97575.97;6166140;28;20233;-89
2022/06/29 05:58:20;;;;;;;8.40;7.60;;;;;;;22.15;77.92;97580.84;6184013;28;20229;-89
2022/06/29 06:01:22;;;;;;;7.83;7.13;;;;;;;22.14;77.95;97571.13;6183115;28;20233;-89
2022/06/29 06:04:25;;;;;;;8.13;7.43;;;;;;;22.16;78.21;97576.31;6175021;28;20257;-90
2022/06/29 06:07:27;;;;;;;8.30;7.60;;;;;;;22.25;78.10;97573.25;6181572;28;20236;-88
2022/06/29 06:10:30;;;;;;;8.70;7.30;;;;;;;22.46;77.10;97575.81;6165599;28;20292;-89
2022/06/29 06:13:32;;;;;;;8.27;7.47;;;;;;;22.57;76.57;97566.31;6197892;28;20265;-87
2022/06/29 06:16:34;;;;;;;7.53;6.93;;;;;;;22.74;76.85;97572.19;6165839;28;20886;-88
2022/06/29 06:19:42;;;;;;;8.37;7.50;;;;;;;23.03;75.69;97568.38;6168225;28;20328;-88
2022/06/29 06:22:45;;;;;;;7.73;7.03;;;;;;;23.37;74.07;97567.34;6171207;28;20248;-88
2022/06/29 06:25:47;;;;;;;7.50;6.90;;;;;;;23.71;72.58;97569.03;6201980;28;20236;-90
2022/06/29 06:28:51;;;;;;;6.90;6.30;;;;;;;24.13;71.42;97571.25;6185364;28;20264;-90
2022/06/29 06:31:57;;;;;;;7.57;6.80;;;;;;;24.63;69.86;97571.53;6183549;28;20601;-90
2022/06/29 06:34:59;;;;;;;6.80;6.20;;;;;;;25.08;68.15;97574.19;6166076;28;20307;-90
2022/06/29 06:38:01;;;;;;;6.70;6.15;;;;;;;25.23;67.68;97572.03;6181849;28;20356;-91
2022/06/29 06:41:22;;;;;;;8.52;7.32;;;;;;;25.28;67.10;97574.88;6198183;28;20300;-90
2022/06/29 06:44:24;;;;;;;8.05;7.35;;;;;;;25.60;65.79;97564.91;6165694;28;20414;-90
2022/06/29 06:47:32;;;;;;;7.05;6.55;;;;;;;25.58;65.48;97566.97;6197095;28;20226;-91
2022/06/29 06:50:34;;;;;;;6.88;6.38;;;;;;;25.52;65.72;97576.81;6182955;28;20233;-90
2022/06/29 06:53:36;;;;;;;6.97;6.38;;;;;;;25.15;66.99;97583.94;6141977;28;20727;-90
2022/06/29 06:56:38;;;;;;;7.40;6.70;;;;;;;25.35;66.57;97568.38;6178163;28;20598;-90
2022/06/29 06:59:40;;;;;;;7.13;6.63;;;;;;;25.78;64.86;97564.94;6197674;28;20287;-91
2022/06/29 07:16:27;;;;;;;7.45;6.70;;;;;;;28.09;55.97;97535.50;5646931;28;20716;-90
2022/06/29 07:19:29;;;;;;;7.65;6.95;;;;;;;28.37;55.65;97542.06;6185662;28;20658;-91
2022/06/29 07:22:32;;;;;;;7.88;7.18;;;;;;;28.26;54.47;97538.31;6175209;28;20798;-92
2022/06/29 07:25:35;;;;;;;7.55;6.85;;;;;;;28.40;53.54;97537.00;6184980;28;20240;-91
2022/06/29 07:28:43;;;;;;;7.03;6.32;;;;;;;28.94;53.53;97535.66;6169649;28;20247;-92
2022/06/29 07:31:45;;;;;;;9.52;6.30;;;;;;;29.26;52.89;97540.56;6167087;28;20716;-90
2022/06/29 07:34:49;;;;;;;9.23;8.32;;;;;;;29.45;50.88;97539.28;6167315;28;20248;-90
2022/06/29 07:37:51;;;;;;;6.40;5.90;;;;;;;29.42;51.47;97537.06;6177877;28;20236;-90
2022/06/29 07:40:53;;;;;;;6.45;6.03;;;;;;;29.94;50.84;97534.91;6199547;28;20380;-90
2022/06/29 07:43:56;;;;;;;7.05;6.35;;;;;;;30.32;50.79;97541.44;6186876;28;20434;-91
2022/06/29 07:46:58;;;;;;;9.80;7.45;;;;;;;30.23;49.51;97527.44;6171523;28;20283;-91
2022/06/29 07:50:01;;;;;;;6.18;5.68;;;;;;;30.09;49.31;97523.41;6187409;28;20232;-91
2022/06/29 07:53:03;;;;;;;6.25;5.65;;;;;;;30.64;48.93;97527.97;6169564;28;20357;-90
2022/06/29 07:56:05;;;;;;;7.50;6.28;;;;;;;30.73;47.74;97520.97;6170282;28;20239;-90
2022/06/29 07:59:08;;;;;;;6.60;5.90;;;;;;;30.86;47.29;97525.19;6186695;28;20236;-90
2022/06/29 08:02:10;;;;;;;8.30;6.97;;;;;;;30.76;46.88;97510.38;6186414;28;20262;-91
2022/06/29 08:05:13;;;;;;;6.72;6.07;;;;;;;30.41;47.04;97518.13;6166624;28;20806;-91
2022/06/29 08:08:16;;;;;;;8.60;6.53;;;;;;;30.76;46.61;97521.28;6181753;28;20935;-91
2022/06/29 08:11:19;;;;;;;6.22;5.35;;;;;;;31.12;45.64;97518.97;6167108;28;20232;-90
2022/06/29 08:14:21;;;;;;;6.70;6.10;;;;;;;31.28;45.97;97519.91;6156880;28;20232;-90
2022/06/29 08:17:24;;;;;;;6.95;5.80;;;;;;;31.60;45.79;97519.91;6199684;28;20236;-90
2022/06/29 08:20:34;;;;;;;5.80;5.30;;;;;;;31.63;46.18;97513.97;6186176;28;20247;-90
2022/06/29 08:23:36;;;;;;;6.55;5.95;;;;;;;31.76;45.20;97502.56;6165550;28;20751;-90
2022/06/29 08:26:46;;;;;;;6.60;5.35;;;;;;;32.19;45.58;97505.06;6177966;28;20286;-91
2022/06/29 08:30:11;;;;;;;6.05;5.55;;;;;;;32.46;45.49;97515.00;6165760;28;20244;-90
2022/06/29 08:33:13;;;;;;;6.03;5.40;;;;;;;32.89;43.97;97517.34;6187541;28;20217;-93
2022/06/29 08:36:15;;;;;;;7.22;6.10;;;;;;;32.82;40.96;97516.81;6161021;28;20269;-90
2022/06/29 08:39:38;;;;;;;6.30;5.70;;;;;;;31.79;42.39;97511.06;6186530;28;20589;-90
2022/06/29 08:42:41;;;;;;;7.93;5.13;;;;;;;31.64;42.80;97510.97;6185186;28;20260;-92
2022/06/29 08:45:46;;;;;;;5.30;4.80;;;;;;;31.51;41.67;97517.66;6167550;28;20247;-91
2022/06/29 08:48:49;;;;;;;6.32;4.57;;;;;;;32.19;42.05;97520.63;6169239;28;20248;-93
2022/06/29 08:51:55;;;;;;;5.03;4.20;;;;;;;32.46;40.24;97517.72;6183479;28;20232;-93
2022/06/29 08:54:59;;;;;;;6.40;4.90;;;;;;;32.43;40.28;97518.28;6155395;28;20244;-94
2022/06/29 08:58:02;;;;;;;5.40;4.90;;;;;;;33.07;40.07;97531.59;6154930;28;20283;-94
2022/06/29 09:01:08;;;;;;;5.20;4.70;;;;;;;33.21;39.79;97532.72;6188155;28;21103;-94
2022/06/29 09:04:11;;;;;;;5.18;4.28;;;;;;;33.23;38.79;97536.88;6174176;28;20252;-93
2022/06/29 09:07:13;;;;;;;4.95;4.55;;;;;;;33.88;40.05;97537.16;6183353;28;20240;-93
2022/06/29 09:10:19;;;;;;;5.15;4.72;;;;;;;34.06;39.24;97526.44;6178742;28;20237;-91
2022/06/29 09:13:23;;;;;;;5.47;4.85;;;;;;;34.07;38.67;97525.34;6179204;28;20243;-90
2022/06/29 09:16:25;;;;;;;6.13;4.90;;;;;;;34.37;38.33;97527.19;6192428;28;20241;-92
2022/06/29 09:19:34;;;;;;;4.82;4.43;;;;;;;34.13;37.96;97522.59;6179642;28;20251;-92
2022/06/29 09:23:10;;;;;;;5.90;4.03;;;;;;;33.89;37.05;97508.69;6189987;28;20225;-93
2022/06/29 09:26:13;;;;;;;5.93;4.60;;;;;;;33.64;37.67;97513.03;6137565;28;20248;-93
2022/06/29 09:29:27;;;;;;;5.55;4.78;;;;;;;32.87;39.06;97503.13;6149387;28;20333;-96
2022/06/29 09:32:32;;;;;;;4.35;4.05;;;;;;;33.13;39.89;97497.72;6135476;28;20237;-91
2022/06/29 09:35:42;;;;;;;4.82;4.32;;;;;;;33.40;39.79;97492.00;6138427;28;20735;-90
2022/06/29 09:38:45;;;;;;;4.65;4.25;;;;;;;33.47;40.79;97498.84;6129079;28;20237;-90
2022/06/29 09:41:47;;;;;;;4.50;3.90;;;;;;;33.34;40.97;97500.19;6133545;28;20237;-90
2022/06/29 09:44:56;;;;;;;4.35;3.95;;;;;;;33.59;40.96;97495.81;6133802;28;20250;-91
2022/06/29 09:47:59;;;;;;;4.18;3.88;;;;;;;33.42;40.64;97490.66;6127845;28;20852;-92
2022/06/29 09:51:30;;;;;;;4.45;4.05;;;;;;;34.07;40.25;97483.44;6118929;28;20252;-91
2022/06/29 10:03:58;;;;;;;;;;;;;;;;;;;;;
2022/06/29 10:07:17;;;;;;;6.30;5.45;;;;;;;34.18;39.52;97459.56;6201181;28;20236;-91
2022/06/29 10:10:25;;;;;;;5.25;4.85;;;;;;;33.85;39.64;97463.75;6199420;28;20245;-92
2022/06/29 10:13:42;;;;;;;6.07;5.50;;;;;;;34.67;38.49;97456.88;6185358;28;20333;-92
2022/06/29 11:18:03;;;;;;;9.40;4.20;;;;;;;36.10;31.72;97396.91;6192212;28;20330;-93
2022/06/29 11:20:43;;;;;;;5.97;5.45;;;;;;;35.85;35.42;97390.59;6187322;28;20739;-93
2022/06/29 11:23:55;;;;;;;8.20;6.28;;;;;;;36.08;36.39;97388.94;6207382;28;20371;-93
2022/06/29 11:26:58;;;;;;;7.22;6.63;;;;;;;36.56;36.05;97384.19;6192223;28;20232;-94
2022/06/29 11:30:15;;;;;;;6.05;4.88;;;;;;;36.13;31.64;97374.34;6212851;28;20315;-94
2022/06/29 11:33:44;;;;;;;4.93;4.53;;;;;;;36.77;34.01;97373.72;6196769;28;20272;-96
2022/06/29 11:36:54;;;;;;;8.25;7.35;;;;;;;37.23;34.81;97371.06;6161441;28;20221;-94
2022/06/29 11:40:00;;;;;;;7.80;7.13;;;;;;;36.58;36.33;97368.22;6168091;28;20230;-94
2022/06/29 11:43:33;;;;;;;9.15;7.40;;;;;;;36.93;35.83;97352.31;6152087;28;20297;-96
2022/06/29 11:47:23;;;;;;;9.15;6.18;;;;;;;37.43;34.25;97349.78;6141222;28;20232;-94
2022/06/29 11:51:05;;;;;;;8.02;7.20;;;;;;;36.96;35.33;97355.25;6210920;28;20275;-95
2022/06/29 11:54:44;;;;;;;7.60;6.93;;;;;;;36.39;36.54;97344.59;6186901;28;20684;-94
2022/06/29 11:58:08;;;;;;;8.63;7.90;;;;;;;36.50;36.38;97337.81;6193783;28;20294;-93
2022/06/29 12:01:26;;;;;;;7.60;7.00;;;;;;;36.49;34.81;97326.00;6178851;28;20229;-94
2022/06/29 12:04:36;;;;;;;6.63;6.10;;;;;;;36.79;35.26;97323.91;6192839;28;20238;-94
2022/06/29 12:12:50;;;;;;;6.70;5.47;;;;;;;36.29;36.09;97311.75;6212340;28;20200;-93
2022/06/29 12:15:52;;;;;;;6.68;5.72;;;;;;;37.03;35.09;97301.78;6225170;28;20258;-49
2022/06/29 12:18:55;;;;;;;4.78;3.92;;;;;;;37.28;33.00;97293.88;6229107;28;20266;-53
2022/06/29 12:21:57;;;;;;;4.18;3.38;;;;;;;36.66;27.49;97295.19;6227109;28;20240;-51
2022/06/29 12:25:00;;;;;;;3.75;3.25;;;;;;;36.88;30.28;97291.84;6226758;28;20232;-52
2022/06/29 12:28:03;;;;;;;4.88;3.20;;;;;;;37.84;28.98;97280.91;6228019;28;20247;-49
2022/06/29 12:31:06;;;;;;;3.95;3.60;;;;;;;37.93;31.64;97277.16;6194015;28;20243;-52
2022/06/29 12:34:13;;;;;;;4.57;3.67;;;;;;;37.53;32.93;97287.06;6227896;28;20238;-51
2022/06/29 12:37:30;;;;;;;5.22;4.25;;;;;;;36.74;33.42;97288.22;6228358;28;20327;-49
2022/06/29 12:40:32;;;;;;;3.97;3.58;;;;;;;36.49;34.84;97284.75;6227441;28;20355;-47
2022/06/29 12:43:34;;;;;;;4.22;3.70;;;;;;;36.65;34.79;97276.25;6214666;28;20726;-51
2022/06/29 12:46:39;;;;;;;4.05;3.33;;;;;;;36.39;35.34;97271.19;6206454;28;20236;-51
2022/06/29 12:49:41;;;;;;;3.67;3.33;;;;;;;35.92;36.36;97265.81;6210159;28;20239;-53
2022/06/29 12:52:46;;;;;;;4.35;3.35;;;;;;;36.18;35.55;97258.81;6196565;28;20786;-48
2022/06/29 12:55:49;;;;;;;4.13;3.00;;;;;;;36.57;35.38;97264.00;6195725;28;21479;-51
2022/06/29 12:58:52;;;;;;;4.40;2.75;;;;;;;36.99;34.99;97259.47;6211169;28;20235;-49
2022/06/29 13:01:55;;;;;;;3.60;2.90;;;;;;;37.25;33.75;97255.94;6215054;28;20250;-53
2022/06/29 13:04:57;;;;;;;4.63;3.22;;;;;;;36.49;34.96;97249.00;6216656;28;20234;-51
2022/06/29 13:08:00;;;;;;;3.10;2.80;;;;;;;35.98;36.68;97246.22;6216481;28;20861;-51
2022/06/29 13:11:03;;;;;;;3.95;2.70;;;;;;;36.42;35.46;97243.09;6216110;28;20279;-49
2022/06/29 13:14:05;;;;;;;3.72;2.78;;;;;;;36.96;33.58;97230.59;6205267;28;20270;-52
2022/06/29 13:17:07;;;;;;;4.05;2.95;;;;;;;37.01;33.66;97225.03;6231988;28;20294;-51
2022/06/29 13:20:12;;;;;;;3.15;2.80;;;;;;;36.84;34.69;97224.78;6231976;28;20251;-49
2022/06/29 13:23:14;;;;;;;3.60;2.50;;;;;;;36.71;35.25;97223.66;6232978;28;20321;-54
2022/06/29 13:26:16;;;;;;;3.10;2.78;;;;;;;36.59;30.93;97215.03;6231384;28;20239;-52
2022/06/29 13:29:19;;;;;;;3.47;2.75;;;;;;;36.67;33.91;97221.75;6221661;28;20235;-49
2022/06/29 13:32:21;;;;;;;3.70;2.83;;;;;;;35.76;36.20;97219.31;6217729;28;20296;-50
2022/06/29 13:35:23;;;;;;;3.97;2.58;;;;;;;34.97;37.48;97219.97;6199605;28;20322;-49
2022/06/29 13:38:26;;;;;;;2.42;2.22;;;;;;;34.80;37.85;97214.97;6217557;28;21018;-48
2022/06/29 13:41:28;;;;;;;3.65;2.90;;;;;;;34.25;39.89;97206.09;6204527;28;20251;-49
2022/06/29 13:44:32;;;;;;;3.78;2.83;;;;;;;33.93;40.56;97197.56;6217266;28;20671;-50
2022/06/29 13:47:34;;;;;;;3.92;2.90;;;;;;;34.00;40.04;97200.78;6209291;28;20231;-51
2022/06/29 13:50:36;;;;;;;3.47;3.03;;;;;;;34.02;39.93;97207.63;6215269;28;20243;-54
2022/06/29 13:53:39;;;;;;;4.45;2.70;;;;;;;33.49;41.08;97203.81;6200014;28;20278;-50
2022/06/29 13:56:41;;;;;;;4.45;3.00;;;;;;;32.98;42.85;97208.63;6216241;28;20698;-49
2022/06/29 13:59:44;;;;;;;2.75;2.53;;;;;;;32.74;43.59;97213.09;6216852;28;20601;-48
2022/06/29 14:02:46;;;;;;;3.45;2.42;;;;;;;32.62;44.00;97197.75;6213732;28;20609;-47
2022/06/29 14:05:50;;;;;;;2.92;2.72;;;;;;;32.71;43.83;97194.50;6215894;28;20310;-50
2022/06/29 14:08:53;;;;;;;3.40;3.00;;;;;;;32.98;43.21;97195.78;6216391;28;20309;-51
2022/06/29 14:12:04;;;;;;;2.95;2.75;;;;;;;33.60;42.20;97186.25;6215511;28;20347;-49
2022/06/29 14:56:19;;;;;;;3.45;2.75;;;;;;;29.88;50.70;97137.75;6203996;28;20229;-49
2022/06/29 14:59:41;;;;;;;4.30;2.97;;;;;;;30.81;48.07;97142.53;6205585;28;20233;-48
2022/06/29 15:02:44;;;;;;;12.15;10.77;;;;;;;30.68;48.38;97143.00;6205637;28;20355;-50
2022/06/29 15:05:46;;;;;;;4.70;3.13;;;;;;;30.87;48.62;97131.63;6205025;28;20260;-51
2022/06/29 15:08:49;;;;;;;11.38;10.25;;;;;;;31.61;46.66;97129.44;6204459;28;20224;-48
2022/06/29 15:11:54;;;;;;;6.40;3.95;;;;;;;31.09;46.62;97135.03;6204388;28;20271;-49
2022/06/29 15:14:56;;;;;;;4.88;3.35;;;;;;;30.57;47.81;97130.41;6221120;28;20385;-50
2022/06/29 15:17:59;;;;;;;7.45;4.38;;;;;;;30.42;49.00;97130.31;6228176;28;20235;-49
2022/06/29 15:21:04;;;;;;;3.78;2.80;;;;;;;31.94;44.99;97130.88;6227506;28;20228;-49
2022/06/29 15:24:07;;;;;;;3.17;2.72;;;;;;;31.52;44.88;97134.63;6229246;28;20687;-51
2022/06/29 15:27:13;;;;;;;3.92;2.38;;;;;;;30.82;46.77;97135.19;6227931;28;20676;-51
2022/06/29 15:30:15;;;;;;;4.53;3.33;;;;;;;32.15;44.56;97123.47;6229532;28;20212;-48
2022/06/29 15:38:45;;;;;;;5.85;3.28;;;;;;;31.84;44.56;97123.47;6228500;28;20207;-49
2022/06/29 15:40:01;;;;;;;4.93;3.08;;;;;;;34.36;39.75;97114.47;6227680;28;20291;-53
2022/06/29 15:43:03;;;;;;;3.55;2.85;;;;;;;33.65;41.79;97112.28;6229339;28;20232;-51
2022/06/29 15:46:06;;;;;;;4.00;3.30;;;;;;;32.96;43.65;97110.47;6227162;28;20232;-53
2022/06/29 15:49:08;;;;;;;3.90;2.70;;;;;;;32.29;44.04;97099.19;6227889;28;20224;-50
2022/06/29 15:52:10;;;;;;;5.93;2.72;;;;;;;31.23;46.26;97103.47;6227750;28;20315;-49
2022/06/29 15:58:33;;;;;;;3.22;2.72;;;;;;;31.26;46.23;97102.09;6226987;28;20247;-53
2022/06/29 16:01:35;;;;;;;2.95;2.58;;;;;;;30.32;48.45;97098.38;6227471;28;20696;-49
2022/06/29 16:04:38;;;;;;;3.25;2.85;;;;;;;29.68;49.94;97106.56;6226917;28;20231;-51
2022/06/29 16:07:41;;;;;;;3.25;2.70;;;;;;;29.30;51.39;97104.81;6227755;28;20333;-51
2022/06/29 16:10:44;;;;;;;3.08;2.50;;;;;;;29.12;52.08;97101.63;6226683;28;20322;-51
2022/06/29 16:13:46;;;;;;;7.07;3.25;;;;;;;28.67;53.75;97094.53;6227386;28;20263;-51
2022/06/29 16:16:48;;;;;;;3.97;2.90;;;;;;;28.40;54.49;97090.94;6227146;28;20730;-49
2022/06/29 16:19:51;;;;;;;5.43;4.93;;;;;;;28.53;55.03;97093.28;6227487;28;20778;-52
2022/06/29 16:22:53;;;;;;;2.97;2.53;;;;;;;29.87;51.89;97090.66;6226568;28;20610;-50
2022/06/29 16:25:55;;;;;;;5.95;3.10;;;;;;;32.15;46.08;97087.97;6227518;28;20223;-53
2022/06/29 16:28:58;;;;;;;6.40;3.20;;;;;;;32.41;44.81;97078.69;6227713;28;20224;-53
2022/06/29 16:32:01;;;;;;;4.57;3.65;;;;;;;31.04;47.62;97086.75;6227102;28;20323;-53
2022/06/29 16:35:04;;;;;;;4.03;2.70;;;;;;;30.88;47.78;97078.78;6227443;28;20239;-50
2022/06/29 16:38:09;;;;;;;3.13;2.50;;;;;;;30.96;46.70;97089.16;6225901;28;20286;-49
2022/06/29 16:41:11;;;;;;;5.47;3.17;;;;;;;31.52;45.90;97085.50;6225607;28;20239;-49
2022/06/29 16:44:14;;;;;;;6.22;2.75;;;;;;;30.93;47.33;97081.53;6227499;28;20230;-52
2022/06/29 16:47:16;;;;;;;7.40;2.85;;;;;;;30.08;49.52;97088.94;6226238;28;20391;-50
2022/06/29 16:50:19;;;;;;;4.70;2.75;;;;;;;29.39;51.63;97078.00;6227651;28;20251;-50
2022/06/29 16:53:22;;;;;;;6.10;3.15;;;;;;;28.93;53.23;97079.41;6227921;28;20231;-50
2022/06/29 16:56:24;;;;;;;4.60;3.28;;;;;;;28.37;54.91;97078.69;6226893;28;20326;-51
2022/06/29 16:59:27;;;;;;;6.40;5.85;;;;;;;28.03;55.50;97077.09;6226821;28;20274;-53